Time;durP1;ratioP1;P1;durP2;ratioP2;P2;SDS_P1;SDS_P2;PMS_P1;PMS_P2;Temp;Humidity;BMP_temperature;BMP_pressure;BME280_temperature;BME280_humidity;BME280_pressure;Samples;Min_cycle;Max_cycle;Signal;HPM_P1;HPM_P2
2022/10/17 00:02:04;;;;;;;6.30;3.28;;;;;;;13.45;89.74;96900.34;5064626;28;20100;-77
2022/10/17 00:04:31;;;;;;;6.18;4.07;;;;;;;13.40;89.87;96894.22;5065227;28;20045;-78
2022/10/17 00:06:57;;;;;;;5.53;3.45;;;;;;;13.32;89.71;96899.41;5064665;28;20041;-79
2022/10/17 00:09:24;;;;;;;10.20;4.30;;;;;;;13.23;90.03;96895.84;5062097;28;20047;-78
2022/10/17 00:11:51;;;;;;;6.82;3.38;;;;;;;13.15;90.14;96895.81;5062501;28;20076;-76
2022/10/17 00:14:19;;;;;;;5.72;3.72;;;;;;;13.17;90.52;96894.38;5061596;28;20061;-77
2022/10/17 00:16:45;;;;;;;8.10;4.00;;;;;;;13.19;90.82;96903.06;5059063;28;20147;-79
2022/10/17 00:19:12;;;;;;;7.40;3.80;;;;;;;13.17;90.91;96899.84;5061771;28;20131;-78
2022/10/17 00:21:38;;;;;;;9.38;4.13;;;;;;;13.10;90.84;96894.03;5066014;28;20051;-78
2022/10/17 00:24:05;;;;;;;6.50;3.80;;;;;;;13.04;90.91;96904.31;5063280;28;20052;-79
2022/10/17 00:26:33;;;;;;;7.30;3.90;;;;;;;13.05;90.77;96903.22;5062994;28;20055;-79
2022/10/17 00:28:59;;;;;;;8.65;4.82;;;;;;;13.08;90.83;96901.75;5062331;28;20072;-78
2022/10/17 00:31:27;;;;;;;8.25;3.92;;;;;;;13.06;91.12;96899.34;5062303;28;20055;-78
2022/10/17 00:33:53;;;;;;;6.32;4.28;;;;;;;13.07;91.21;96902.88;5062343;28;20084;-78
2022/10/17 00:36:22;;;;;;;6.45;3.97;;;;;;;13.04;91.28;96898.06;5061008;28;20094;-77
2022/10/17 00:38:51;;;;;;;8.40;4.10;;;;;;;13.06;91.36;96904.03;5058844;28;20057;-78
2022/10/17 00:41:20;;;;;;;7.30;3.47;;;;;;;13.09;91.55;96903.38;5023680;28;20069;-78
2022/10/17 00:43:52;;;;;;;7.35;3.45;;;;;;;13.08;91.60;96901.75;5042040;28;20045;-78
2022/10/17 00:46:19;;;;;;;5.38;3.45;;;;;;;13.05;91.32;96905.16;5061123;28;20049;-79
2022/10/17 00:48:51;;;;;;;6.05;3.88;;;;;;;13.04;91.78;96903.53;5063016;28;20139;-78
2022/10/17 00:51:20;;;;;;;5.93;3.28;;;;;;;13.03;91.99;96901.91;5065545;28;20109;-79
2022/10/17 00:53:47;;;;;;;8.25;3.90;;;;;;;12.92;91.70;96897.88;5055917;28;20068;-80
2022/10/17 00:56:16;;;;;;;5.13;3.65;;;;;;;12.94;91.42;96906.56;5065991;28;20068;-80
2022/10/17 00:58:45;;;;;;;5.97;3.83;;;;;;;12.98;92.09;96899.34;5048962;28;20041;-78
2022/10/17 01:01:11;;;;;;;7.35;3.63;;;;;;;13.00;92.45;96905.31;5063485;28;20045;-78
2022/10/17 01:03:38;;;;;;;7.78;4.40;;;;;;;12.97;92.37;96911.41;5065184;28;20045;-79
2022/10/17 01:06:06;;;;;;;5.70;3.63;;;;;;;12.99;92.58;96914.59;5046964;28;20091;-79
2022/10/17 01:08:33;;;;;;;13.25;5.32;;;;;;;12.91;92.76;96905.28;5065339;28;20090;-77
2022/10/17 01:11:08;;;;;;;6.78;4.32;;;;;;;12.95;92.52;96910.94;5064912;28;20116;-78
2022/10/17 01:13:42;;;;;;;7.63;4.70;;;;;;;12.85;93.00;96905.75;5058116;28;20052;-79
2022/10/17 01:16:17;;;;;;;8.70;4.72;;;;;;;12.72;93.38;96904.75;5059099;28;20123;-79
2022/10/17 01:18:55;;;;;;;8.45;4.75;;;;;;;12.68;94.11;96903.78;5058710;28;20685;-78
2022/10/17 01:21:37;;;;;;;5.80;4.40;;;;;;;12.71;94.41;96898.50;5041630;28;20497;-78
2022/10/17 01:24:37;;;;;;;9.07;5.35;;;;;;;12.67;95.60;96902.97;5059476;28;20047;-79
2022/10/17 01:27:26;;;;;;;9.15;5.60;;;;;;;12.67;96.09;96889.31;5025644;28;20052;-79
2022/10/17 01:30:04;;;;;;;8.43;5.38;;;;;;;12.73;96.21;96896.22;5039187;28;20049;-79
2022/10/17 01:32:37;;;;;;;6.53;5.28;;;;;;;12.82;96.23;96892.72;5039208;28;20056;-79
2022/10/17 01:35:12;;;;;;;6.03;4.57;;;;;;;12.90;96.39;96894.69;5038457;28;20132;-80
2022/10/17 01:37:47;;;;;;;10.05;4.40;;;;;;;12.91;96.38;96890.81;5039426;28;20060;-78
2022/10/17 01:40:22;;;;;;;8.55;4.72;;;;;;;12.95;96.41;96902.72;5058818;28;20058;-79
2022/10/17 01:42:56;;;;;;;6.07;4.05;;;;;;;12.97;96.41;96895.00;5059334;28;20132;-78
2022/10/17 01:45:29;;;;;;;7.05;5.15;;;;;;;12.94;96.47;96901.91;5059622;28;20052;-79
2022/10/17 01:48:04;;;;;;;8.90;5.05;;;;;;;12.95;96.69;96900.00;5059377;28;20069;-79
2022/10/17 01:50:36;;;;;;;5.22;4.30;;;;;;;12.99;96.45;96900.94;5058529;28;20124;-78
2022/10/17 01:53:06;;;;;;;7.88;4.40;;;;;;;13.02;96.56;96898.38;5058497;28;20117;-78
2022/10/17 01:55:38;;;;;;;5.80;4.57;;;;;;;13.03;96.52;96899.19;5058836;28;20051;-78
2022/10/17 01:58:09;;;;;;;4.10;3.45;;;;;;;13.09;96.73;96897.91;5059218;28;20140;-78
2022/10/17 02:00:41;;;;;;;6.25;4.13;;;;;;;13.10;96.52;96904.97;5058568;28;20136;-78
2022/10/17 02:03:14;;;;;;;5.05;3.65;;;;;;;13.12;96.35;96904.66;5058967;28;20068;-78
2022/10/17 02:05:42;;;;;;;5.30;3.72;;;;;;;13.13;96.00;96904.34;5059069;28;20455;-78
2022/10/17 02:08:09;;;;;;;4.65;3.70;;;;;;;13.13;95.94;96903.53;5059059;28;20052;-79
2022/10/17 02:10:48;;;;;;;3.78;3.22;;;;;;;13.09;95.82;96897.91;5059303;28;20045;-80
2022/10/17 02:13:23;;;;;;;3.50;2.80;;;;;;;13.07;95.87;96895.50;5050729;28;20072;-79
2022/10/17 02:16:04;;;;;;;3.20;2.90;;;;;;;13.05;95.72;96889.56;5041545;28;20057;-79
2022/10/17 02:18:57;;;;;;;3.75;2.92;;;;;;;13.06;95.74;96887.63;5058229;28;20522;-79
2022/10/17 02:21:32;;;;;;;5.63;2.75;;;;;;;13.02;95.62;96892.91;5057532;28;20041;-79
2022/10/17 02:24:07;;;;;;;4.07;3.08;;;;;;;12.98;95.69;96878.28;5057736;28;20427;-79
2022/10/17 02:26:38;;;;;;;3.20;2.88;;;;;;;12.97;95.52;96890.34;5058054;28;20412;-79
2022/10/17 02:29:09;;;;;;;3.20;2.65;;;;;;;12.98;95.43;96891.13;5056897;28;20053;-77
2022/10/17 02:31:41;;;;;;;2.92;2.55;;;;;;;12.96;95.23;96883.25;5058313;28;20044;-79
2022/10/17 02:34:17;;;;;;;4.38;2.30;;;;;;;12.99;94.97;96890.00;5057260;28;20075;-79
2022/10/17 02:36:48;;;;;;;3.28;2.63;;;;;;;13.04;94.81;96895.31;5058652;28;20412;-78
2022/10/17 02:39:19;;;;;;;3.08;2.45;;;;;;;13.00;94.31;96894.38;5057364;28;20040;-79
2022/10/17 02:41:47;;;;;;;3.83;2.38;;;;;;;12.99;94.33;96895.47;5057690;28;20059;-77
2022/10/17 02:44:14;;;;;;;3.70;2.50;;;;;;;12.94;94.19;96893.69;5057491;28;20048;-77
2022/10/17 02:46:47;;;;;;;2.85;2.30;;;;;;;12.86;94.18;96888.25;5057351;28;20076;-79
2022/10/17 02:49:26;;;;;;;5.43;3.13;;;;;;;12.80;94.14;96890.31;5056946;28;20128;-81
2022/10/17 02:51:57;;;;;;;3.55;2.38;;;;;;;12.79;93.96;96892.25;5058122;28;20136;-79
2022/10/17 02:54:31;;;;;;;4.53;3.35;;;;;;;12.80;93.08;96888.38;5057475;28;20120;-79
2022/10/17 02:57:02;;;;;;;2.80;2.47;;;;;;;12.78;92.36;96893.34;5057313;28;20037;-78
2022/10/17 02:59:31;;;;;;;4.85;2.70;;;;;;;12.77;92.12;96896.41;5056028;28;20045;-78
2022/10/17 03:01:58;;;;;;;3.88;2.50;;;;;;;12.66;92.08;96895.09;5057450;28;20041;-78
2022/10/17 03:04:26;;;;;;;4.18;2.40;;;;;;;12.52;91.13;96900.69;5056878;28;20057;-80
2022/10/17 03:06:54;;;;;;;3.10;2.55;;;;;;;12.46;91.61;96908.22;5056811;28;20637;-79
2022/10/17 03:09:21;;;;;;;3.55;2.58;;;;;;;12.40;91.87;96914.16;5036318;28;20046;-79
2022/10/17 03:11:48;;;;;;;2.70;2.40;;;;;;;12.38;92.04;96911.75;5035753;28;20080;-78
2022/10/17 03:14:14;;;;;;;3.15;2.30;;;;;;;12.34;91.87;96909.94;5049895;28;20049;-79
2022/10/17 03:16:42;;;;;;;3.20;2.40;;;;;;;12.24;92.16;96911.84;5057037;28;20069;-79
2022/10/17 03:19:09;;;;;;;5.63;2.78;;;;;;;12.16;92.78;96914.53;5055708;28;20466;-78
2022/10/17 03:21:38;;;;;;;3.80;2.65;;;;;;;12.15;93.24;96913.72;5045836;28;20045;-78
2022/10/17 03:24:05;;;;;;;4.55;2.88;;;;;;;12.18;93.00;96924.03;5055812;28;20053;-78
2022/10/17 03:26:32;;;;;;;4.28;3.08;;;;;;;12.15;92.76;96930.09;5057362;28;20132;-79
2022/10/17 03:28:58;;;;;;;3.70;2.78;;;;;;;12.16;92.95;96931.72;5057093;28;20056;-80
2022/10/17 03:31:27;;;;;;;10.18;3.22;;;;;;;12.20;93.11;96927.22;5057866;28;20060;-80
2022/10/17 03:33:55;;;;;;;2.85;2.45;;;;;;;12.01;92.29;96932.94;5059236;28;20080;-80
2022/10/17 03:36:22;;;;;;;4.60;3.40;;;;;;;11.82;92.25;96926.88;5059080;28;20053;-80
2022/10/17 03:38:53;;;;;;;4.50;3.10;;;;;;;11.81;92.99;96929.91;5059956;28;20056;-80
2022/10/17 03:41:20;;;;;;;2.90;2.60;;;;;;;11.88;92.88;96924.81;5059094;28;20056;-80
2022/10/17 03:43:49;;;;;;;4.43;2.85;;;;;;;11.90;92.40;96928.03;5048066;28;20071;-79
2022/10/17 03:46:16;;;;;;;4.43;2.53;;;;;;;11.89;92.26;96924.50;5039020;28;20652;-80
2022/10/17 03:48:44;;;;;;;3.67;2.53;;;;;;;11.90;92.46;96925.31;5056462;28;20472;-79
2022/10/17 03:51:11;;;;;;;5.25;2.72;;;;;;;11.86;92.80;96918.88;5062304;28;20112;-79
2022/10/17 03:53:37;;;;;;;3.20;2.25;;;;;;;11.81;92.84;96924.44;5062993;28;20116;-80
2022/10/17 03:56:14;;;;;;;2.90;2.30;;;;;;;11.80;93.01;96928.25;5062627;28;20041;-80
2022/10/17 03:58:41;;;;;;;2.70;2.20;;;;;;;11.81;92.90;96927.97;5059039;28;20052;-79
2022/10/17 04:01:10;;;;;;;3.55;2.45;;;;;;;11.83;93.03;96922.22;5059796;28;20045;-79
2022/10/17 04:03:37;;;;;;;4.10;2.45;;;;;;;11.83;92.83;96928.47;5059516;28;20049;-80
2022/10/17 04:06:05;;;;;;;4.30;2.30;;;;;;;11.84;92.78;96916.44;5058085;28;20133;-80
2022/10/17 04:08:33;;;;;;;2.78;2.40;;;;;;;11.84;92.54;96921.09;5058519;28;20496;-80
2022/10/17 04:11:00;;;;;;;3.85;2.50;;;;;;;11.71;92.55;96923.56;5059701;28;20047;-81
2022/10/17 04:13:29;;;;;;;3.40;2.90;;;;;;;11.53;92.93;96927.28;5060294;28;20083;-80
2022/10/17 04:15:56;;;;;;;4.20;2.65;;;;;;;11.54;93.14;96928.91;5062953;28;20123;-81
2022/10/17 04:18:23;;;;;;;3.00;2.25;;;;;;;11.60;92.92;96930.41;5045418;28;20495;-79
2022/10/17 04:20:50;;;;;;;3.40;2.50;;;;;;;11.66;93.21;96936.53;5037847;28;20424;-79
2022/10/17 04:23:17;;;;;;;3.58;2.20;;;;;;;11.70;93.57;96941.06;5055205;28;20129;-78
2022/10/17 04:25:43;;;;;;;3.35;2.50;;;;;;;11.72;93.88;96947.00;5056022;28;20416;-79
2022/10/17 04:28:10;;;;;;;3.10;2.60;;;;;;;11.72;94.29;96944.28;5036848;28;20204;-78
2022/10/17 04:30:39;;;;;;;3.50;2.60;;;;;;;11.72;93.86;96944.28;5055028;28;20049;-78
2022/10/17 04:33:05;;;;;;;4.70;2.55;;;;;;;11.75;94.05;96943.66;5037492;28;20415;-79
2022/10/17 04:35:33;;;;;;;2.92;2.28;;;;;;;11.82;93.59;96942.44;5054577;28;20045;-79
2022/10/17 04:38:00;;;;;;;3.60;2.50;;;;;;;11.82;93.13;96945.97;5055614;28;20128;-79
2022/10/17 04:40:26;;;;;;;4.50;2.40;;;;;;;11.76;92.00;96949.91;5036849;28;20052;-79
2022/10/17 04:42:53;;;;;;;2.65;2.05;;;;;;;11.70;91.68;96938.34;5054370;28;20053;-78
2022/10/17 04:45:20;;;;;;;4.80;2.35;;;;;;;11.64;91.94;96941.47;5039616;28;20053;-79
2022/10/17 04:47:47;;;;;;;6.50;2.65;;;;;;;11.64;92.20;96947.75;5035140;28;20042;-80
2022/10/17 04:50:14;;;;;;;6.60;2.60;;;;;;;11.67;92.59;96941.66;5035246;28;20046;-78
2022/10/17 04:52:41;;;;;;;3.85;2.38;;;;;;;11.69;92.33;96946.81;5035411;28;20057;-80
2022/10/17 04:55:08;;;;;;;4.57;2.97;;;;;;;11.59;92.71;96947.88;5048352;28;20408;-78
2022/10/17 04:57:35;;;;;;;3.97;2.58;;;;;;;11.60;92.80;96948.69;5055076;28;20060;-80
2022/10/17 05:00:02;;;;;;;3.35;2.40;;;;;;;11.63;92.84;96957.03;5054538;28;20543;-78
2022/10/17 05:02:29;;;;;;;5.07;2.78;;;;;;;11.66;92.55;96955.63;5036857;28;20048;-78
2022/10/17 05:04:57;;;;;;;6.15;2.95;;;;;;;11.60;91.57;96949.50;5036978;28;20538;-79
2022/10/17 05:07:24;;;;;;;3.22;2.10;;;;;;;11.57;91.23;96952.81;5054162;28;20195;-79
2022/10/17 05:09:50;;;;;;;3.65;2.38;;;;;;;11.54;91.23;96956.19;5036418;28;20520;-79
2022/10/17 05:12:17;;;;;;;4.05;2.97;;;;;;;11.55;90.99;96952.34;5055401;28;20040;-79
2022/10/17 05:14:44;;;;;;;7.63;3.00;;;;;;;11.47;91.23;96956.59;5053699;28;20051;-79
2022/10/17 05:17:10;;;;;;;3.33;2.60;;;;;;;11.46;91.48;96959.66;5053335;28;20049;-78
2022/10/17 05:19:39;;;;;;;5.03;3.00;;;;;;;11.43;91.66;96963.81;5053986;28;20051;-79
2022/10/17 05:22:07;;;;;;;3.85;2.58;;;;;;;11.46;91.97;96970.56;5043774;28;20125;-78
2022/10/17 05:24:34;;;;;;;5.32;2.40;;;;;;;11.41;91.16;96971.47;5055036;28;20053;-78
2022/10/17 05:27:00;;;;;;;4.43;2.85;;;;;;;11.40;91.06;96974.50;5037067;28;20079;-79
2022/10/17 05:29:27;;;;;;;7.28;2.70;;;;;;;11.37;90.99;96980.56;5036725;28;20041;-79
2022/10/17 05:31:54;;;;;;;5.25;2.70;;;;;;;11.31;90.96;96970.91;5053368;28;20045;-79
2022/10/17 05:34:21;;;;;;;3.53;2.50;;;;;;;11.27;91.29;96972.63;5054586;28;20057;-79
2022/10/17 05:36:48;;;;;;;5.32;3.28;;;;;;;11.12;91.51;96971.03;5059090;28;20059;-79
2022/10/17 05:39:18;;;;;;;4.63;2.70;;;;;;;11.16;91.89;96972.03;5058850;28;20102;-78
2022/10/17 05:41:45;;;;;;;4.15;2.55;;;;;;;11.19;91.99;96974.97;5060108;28;20045;-79
2022/10/17 05:44:12;;;;;;;5.88;3.10;;;;;;;11.26;92.37;96980.00;5056990;28;20099;-80
2022/10/17 05:46:38;;;;;;;4.38;3.03;;;;;;;11.27;91.47;96978.06;5042154;28;20488;-80
2022/10/17 05:49:05;;;;;;;4.28;2.50;;;;;;;11.13;89.42;96992.56;5055950;28;20053;-77
2022/10/17 05:51:33;;;;;;;4.70;2.42;;;;;;;10.97;88.22;96985.81;5055486;28;20094;-79
2022/10/17 05:54:00;;;;;;;5.00;2.33;;;;;;;10.89;88.08;96994.69;5037353;28;20048;-78
2022/10/17 05:56:28;;;;;;;9.13;3.03;;;;;;;10.86;89.17;97003.50;5055201;28;20076;-78
2022/10/17 05:58:54;;;;;;;5.32;3.00;;;;;;;10.84;90.17;97011.16;5055217;28;20055;-78
2022/10/17 06:01:23;;;;;;;5.78;3.17;;;;;;;10.85;91.09;97018.22;5054551;28;20075;-81
2022/10/17 06:03:50;;;;;;;5.75;3.28;;;;;;;10.91;91.54;97017.81;5044589;28;20049;-80
2022/10/17 06:06:18;;;;;;;5.22;3.13;;;;;;;10.93;91.92;97012.06;5044400;28;20056;-81
2022/10/17 06:08:45;;;;;;;5.72;3.83;;;;;;;11.00;91.97;97017.09;5060714;28;20522;-80
2022/10/17 06:11:12;;;;;;;6.45;3.63;;;;;;;11.05;92.35;97023.25;5058950;28;20053;-80
2022/10/17 06:13:41;;;;;;;7.00;3.70;;;;;;;11.06;92.00;97022.13;5058347;28;20041;-79
2022/10/17 06:16:08;;;;;;;5.80;3.65;;;;;;;11.07;91.96;97023.75;5061167;28;20051;-80
2022/10/17 06:18:35;;;;;;;5.97;3.80;;;;;;;11.13;92.39;97025.25;5060479;28;20040;-81
2022/10/17 06:21:03;;;;;;;7.10;3.90;;;;;;;11.18;92.73;97016.97;5061204;28;20057;-81
2022/10/17 06:23:29;;;;;;;10.52;3.78;;;;;;;11.20;92.55;97020.19;5060465;28;20053;-80
2022/10/17 06:25:58;;;;;;;9.30;3.80;;;;;;;11.19;92.52;97029.50;5059944;28;20553;-79
2022/10/17 06:28:25;;;;;;;6.50;3.45;;;;;;;11.13;91.79;97022.53;5060168;28;20219;-79
2022/10/17 06:30:53;;;;;;;4.85;2.78;;;;;;;11.07;91.57;97026.50;5061415;28;20049;-81
2022/10/17 06:33:20;;;;;;;4.72;2.83;;;;;;;11.10;91.47;97022.34;5063997;28;20069;-79
2022/10/17 06:35:51;;;;;;;7.70;5.50;;;;;;;11.17;92.10;97025.44;5061079;28;20044;-79
2022/10/17 06:38:18;;;;;;;8.95;4.18;;;;;;;11.19;91.91;97029.50;5043291;28;20063;-80
2022/10/17 06:40:44;;;;;;;7.57;4.10;;;;;;;11.20;92.29;97036.56;5061969;28;20041;-80
2022/10/17 06:43:11;;;;;;;7.80;3.92;;;;;;;11.29;92.43;97027.66;5050532;28;20050;-79
2022/10/17 06:45:38;;;;;;;6.72;4.53;;;;;;;11.35;92.24;97038.16;5040182;28;20046;-80
2022/10/17 06:48:07;;;;;;;7.25;4.30;;;;;;;11.41;92.65;97036.91;5038946;28;20049;-79
2022/10/17 06:50:34;;;;;;;9.45;3.67;;;;;;;11.52;93.20;97042.94;5038886;28;20105;-79
2022/10/17 06:53:01;;;;;;;7.38;3.90;;;;;;;11.46;92.93;97038.72;5020953;28;20052;-80
2022/10/17 06:55:27;;;;;;;8.73;3.67;;;;;;;11.53;93.47;97044.56;5021046;28;20046;-79
2022/10/17 06:57:54;;;;;;;6.57;3.92;;;;;;;11.64;93.84;97045.97;5039201;28;20072;-79
2022/10/17 07:00:22;;;;;;;10.05;3.80;;;;;;;11.55;94.24;97052.47;5038600;28;20052;-80
2022/10/17 07:02:49;;;;;;;6.13;3.60;;;;;;;11.77;93.98;97047.84;5039457;28;20460;-79
2022/10/17 07:05:18;;;;;;;6.50;3.33;;;;;;;11.89;93.53;97051.97;5037963;28;20487;-79
2022/10/17 07:07:44;;;;;;;12.13;4.03;;;;;;;12.13;93.57;97057.94;5038787;28;20132;-79
2022/10/17 07:10:11;;;;;;;5.22;3.38;;;;;;;12.20;92.95;97058.28;5037117;28;20041;-79
2022/10/17 07:12:38;;;;;;;6.50;3.38;;;;;;;12.38;92.57;97052.97;5038461;28;20054;-79
2022/10/17 07:15:05;;;;;;;11.50;4.15;;;;;;;12.25;90.48;97055.44;5037440;28;20532;-79
2022/10/17 07:17:32;;;;;;;5.80;3.58;;;;;;;12.45;90.32;97064.25;5039082;28;20527;-79
2022/10/17 07:19:58;;;;;;;4.85;3.10;;;;;;;12.62;90.23;97064.31;5037733;28;20049;-79
2022/10/17 07:22:26;;;;;;;11.00;3.63;;;;;;;12.75;90.17;97055.25;5037754;28;20040;-79
2022/10/17 07:24:53;;;;;;;8.75;3.97;;;;;;;12.91;90.61;97068.50;5038390;28;20041;-79
2022/10/17 07:27:20;;;;;;;6.72;3.38;;;;;;;12.91;89.33;97077.50;5038208;28;20049;-79
2022/10/17 07:29:46;;;;;;;5.78;3.47;;;;;;;13.08;88.94;97079.47;5038098;23;20051;-77
2022/10/17 07:32:13;;;;;;;6.90;3.47;;;;;;;13.32;88.46;97076.38;5053153;28;20127;-76
2022/10/17 07:34:42;;;;;;;8.82;3.60;;;;;;;13.44;88.38;97086.72;5053260;28;20539;-76
2022/10/17 07:37:09;;;;;;;6.10;3.55;;;;;;;13.62;87.84;97079.31;5052770;28;20047;-76
2022/10/17 07:39:38;;;;;;;5.15;3.30;;;;;;;13.65;86.16;97087.72;5053108;28;20106;-74
2022/10/17 07:42:06;;;;;;;6.70;3.22;;;;;;;13.61;84.77;97083.19;5052539;28;20045;-76
2022/10/17 07:44:34;;;;;;;5.05;3.40;;;;;;;13.80;84.84;97092.72;5052738;28;20056;-75
2022/10/17 07:47:00;;;;;;;6.28;3.50;;;;;;;13.92;84.68;97091.28;5052391;28;20131;-75
2022/10/17 07:49:27;;;;;;;12.20;3.88;;;;;;;14.04;84.13;97091.44;5053357;28;20124;-76
2022/10/17 07:51:53;;;;;;;4.15;3.20;;;;;;;13.99;80.88;97091.59;5054207;28;20056;-75
2022/10/17 07:54:20;;;;;;;5.68;3.28;;;;;;;14.24;80.97;97090.78;5053768;28;20049;-75
2022/10/17 07:56:49;;;;;;;9.88;3.40;;;;;;;14.48;79.95;97095.00;5053370;28;20482;-76
2022/10/17 07:59:16;;;;;;;5.88;3.60;;;;;;;14.78;80.27;97093.16;5051808;28;20045;-76
2022/10/17 08:01:43;;;;;;;7.40;3.58;;;;;;;15.08;78.02;97096.75;5052781;28;20059;-77
2022/10/17 08:04:09;;;;;;;6.30;3.10;;;;;;;15.31;76.06;97100.84;5051914;28;20051;-75
2022/10/17 08:06:36;;;;;;;5.28;3.28;;;;;;;15.39;74.54;97099.19;5053072;28;20128;-75
2022/10/17 08:09:05;;;;;;;9.60;4.03;;;;;;;15.43;74.13;97102.09;5051711;28;20049;-76
2022/10/17 08:11:32;;;;;;;7.35;2.88;;;;;;;15.65;74.86;97105.34;5051929;28;20068;-75
2022/10/17 08:13:59;;;;;;;6.20;3.00;;;;;;;15.92;75.40;97108.75;5052613;28;20049;-76
2022/10/17 08:16:26;;;;;;;6.95;3.35;;;;;;;16.03;75.29;97114.66;5052543;28;20045;-75
2022/10/17 08:18:53;;;;;;;4.28;2.90;;;;;;;16.23;75.10;97108.34;5052696;28;20045;-77
2022/10/17 08:21:19;;;;;;;4.53;3.10;;;;;;;16.43;74.45;97113.00;5051835;28;20045;-76
2022/10/17 08:23:46;;;;;;;7.63;2.90;;;;;;;16.46;72.76;97110.75;5054028;28;20041;-77
2022/10/17 08:26:16;;;;;;;8.18;3.40;;;;;;;16.39;73.79;97111.28;5052253;28;20399;-76
2022/10/17 08:28:42;;;;;;;5.18;2.78;;;;;;;16.42;73.60;97105.91;5051162;28;20083;-76
2022/10/17 08:31:13;;;;;;;8.57;3.58;;;;;;;16.58;74.11;97113.53;5050754;28;20056;-76
2022/10/17 08:33:40;;;;;;;5.65;2.95;;;;;;;16.68;73.25;97102.09;5051040;28;20106;-76
2022/10/17 08:36:10;;;;;;;4.30;2.90;;;;;;;16.81;74.38;97106.56;5051121;28;20040;-78
2022/10/17 08:38:38;;;;;;;4.50;2.72;;;;;;;16.78;70.58;97101.72;5051555;28;20053;-76
2022/10/17 08:41:11;;;;;;;5.18;2.90;;;;;;;16.93;70.10;97103.00;5051609;28;20051;-76
2022/10/17 08:44:00;;;;;;;4.30;2.90;;;;;;;16.87;67.88;97101.63;5051356;28;20055;-76
2022/10/17 08:46:32;;;;;;;6.80;3.08;;;;;;;17.01;69.53;97104.03;5051474;28;20045;-76
2022/10/17 08:49:02;;;;;;;6.43;3.20;;;;;;;17.16;70.70;97103.38;5051852;28;20052;-76
2022/10/17 08:51:33;;;;;;;7.00;3.13;;;;;;;17.22;68.13;97113.00;5051186;28;20037;-76
2022/10/17 08:54:09;;;;;;;5.32;3.22;;;;;;;17.22;70.19;97104.75;5051644;28;20085;-76
2022/10/17 08:56:42;;;;;;;4.35;3.10;;;;;;;17.15;67.63;97104.53;5052767;28;20049;-75
2022/10/17 08:59:12;;;;;;;8.63;2.80;;;;;;;17.16;68.68;97101.44;5052037;28;20045;-76
2022/10/17 09:01:48;;;;;;;9.38;3.38;;;;;;;17.24;68.79;97096.97;5053479;28;20045;-77
2022/10/17 09:04:35;;;;;;;4.05;2.55;;;;;;;17.38;67.41;97108.47;5052051;28;20051;-75
2022/10/17 09:07:08;;;;;;;7.03;3.33;;;;;;;17.43;65.91;97099.94;5053744;28;20128;-77
2022/10/17 09:09:42;;;;;;;19.33;3.92;;;;;;;17.24;66.91;97110.75;5054684;28;20047;-75
2022/10/17 09:12:17;;;;;;;4.55;2.53;;;;;;;17.34;66.23;97110.28;5037966;28;20048;-76
2022/10/17 09:15:23;;;;;;;4.53;2.80;;;;;;;17.45;65.83;97108.69;5057292;28;20468;-76
2022/10/17 09:17:54;;;;;;;5.30;3.10;;;;;;;17.66;65.81;97102.25;5030830;28;20061;-76
2022/10/17 09:20:24;;;;;;;7.55;3.03;;;;;;;17.91;64.86;97097.56;5057394;28;20045;-76
2022/10/17 09:22:56;;;;;;;5.30;2.85;;;;;;;17.94;61.54;97100.41;5059135;28;20113;-76
2022/10/17 09:25:23;;;;;;;5.63;3.20;;;;;;;18.21;63.47;97103.53;5060056;28;20041;-75
2022/10/17 09:27:53;;;;;;;5.65;3.53;;;;;;;18.17;60.40;97100.69;5060723;28;20053;-76
2022/10/17 09:30:36;;;;;;;6.75;2.92;;;;;;;18.17;59.81;97088.88;5060199;28;20125;-75
2022/10/17 09:33:12;;;;;;;4.15;3.05;;;;;;;18.33;61.33;97086.19;5061851;28;20128;-76
2022/10/17 09:35:40;;;;;;;5.00;3.08;;;;;;;18.31;60.01;97081.00;5060481;28;20048;-76
2022/10/17 09:38:14;;;;;;;4.95;3.13;;;;;;;18.56;59.91;97095.50;5059823;28;20052;-76
2022/10/17 09:40:41;;;;;;;5.38;3.03;;;;;;;18.79;60.37;97095.75;5059794;28;20140;-76
2022/10/17 09:43:11;;;;;;;5.40;2.90;;;;;;;18.89;58.63;97094.44;5060300;28;20044;-75
2022/10/17 09:45:45;;;;;;;7.30;2.83;;;;;;;19.15;59.37;97094.72;5061808;28;20048;-76
2022/10/17 09:48:22;;;;;;;6.15;2.80;;;;;;;19.28;60.12;97089.91;5060773;28;20049;-76
2022/10/17 09:50:49;;;;;;;4.30;3.10;;;;;;;19.30;55.32;97101.41;5059983;28;20041;-75
2022/10/17 09:53:22;;;;;;;5.85;2.90;;;;;;;19.43;55.08;97097.41;5057952;28;20113;-75
2022/10/17 09:55:54;;;;;;;4.43;2.88;;;;;;;19.32;56.32;97104.63;5056988;28;20499;-76
2022/10/17 09:58:22;;;;;;;5.53;2.88;;;;;;;19.48;57.86;97102.66;5057499;28;20569;-75
2022/10/17 10:00:49;;;;;;;5.95;2.83;;;;;;;19.43;56.39;97100.16;5057233;28;20049;-76
2022/10/17 10:03:19;;;;;;;5.55;2.80;;;;;;;19.65;57.95;97106.22;5056580;28;20053;-76
2022/10/17 10:06:12;;;;;;;4.43;2.78;;;;;;;19.76;57.58;97110.03;5056278;28;20053;-77
2022/10/17 10:08:49;;;;;;;5.25;2.20;;;;;;;19.85;56.54;97105.13;5053914;28;20411;-76
2022/10/17 10:11:16;;;;;;;5.00;2.97;;;;;;;19.93;55.99;97112.41;5056798;28;20124;-77
2022/10/17 10:13:49;;;;;;;5.18;3.00;;;;;;;20.02;57.68;97113.00;5057004;28;20056;-77
2022/10/17 10:16:20;;;;;;;3.50;2.70;;;;;;;20.01;58.02;97108.66;5057273;28;20056;-75
2022/10/17 10:18:52;;;;;;;8.55;3.25;;;;;;;20.22;57.42;97102.78;5056540;28;20283;-75
2022/10/17 10:21:21;;;;;;;6.07;2.60;;;;;;;20.16;57.87;97108.97;5060297;28;20040;-75
2022/10/17 10:24:07;;;;;;;8.30;3.00;;;;;;;20.06;55.55;97119.44;5060838;28;20052;-76
2022/10/17 10:26:38;;;;;;;6.53;3.15;;;;;;;20.19;56.93;97114.56;5060560;28;20068;-75
2022/10/17 10:29:07;;;;;;;8.15;2.70;;;;;;;20.29;57.84;97113.97;5059094;28;20041;-75
2022/10/17 10:31:38;;;;;;;8.05;2.70;;;;;;;20.22;55.80;97118.56;5058697;28;20048;-76
2022/10/17 10:34:19;;;;;;;5.15;2.88;;;;;;;20.42;55.52;97122.97;5057378;28;20055;-77
2022/10/17 10:36:53;;;;;;;7.85;2.88;;;;;;;20.49;55.01;97120.38;5057717;28;20056;-76
2022/10/17 10:39:30;;;;;;;4.97;2.55;;;;;;;20.48;54.47;97110.47;5055851;28;20419;-77
2022/10/17 10:41:59;;;;;;;9.25;2.70;;;;;;;20.66;56.86;97121.09;5057695;28;20051;-77
2022/10/17 10:44:28;;;;;;;4.53;2.65;;;;;;;20.83;56.37;97115.13;5056596;28;20109;-76
2022/10/17 10:47:24;;;;;;;4.00;2.67;;;;;;;20.82;54.71;97119.03;5059720;28;20049;-75
2022/10/17 10:50:07;;;;;;;4.68;2.58;;;;;;;20.73;51.77;97116.50;5014243;28;20037;-75
2022/10/17 10:52:42;;;;;;;6.37;2.80;;;;;;;20.75;52.75;97113.38;5048972;28;20053;-75
2022/10/17 10:55:19;;;;;;;5.10;2.92;;;;;;;20.53;53.98;97112.94;5057029;28;20411;-77
2022/10/17 10:57:49;;;;;;;6.30;3.22;;;;;;;20.64;55.16;97118.69;5056067;28;20045;-76
2022/10/17 11:00:23;;;;;;;6.10;2.50;;;;;;;20.55;58.22;97121.66;5055421;28;20076;-77
2022/10/17 11:03:00;;;;;;;5.63;2.90;;;;;;;20.58;57.71;97109.88;5056635;28;20052;-77
2022/10/17 11:05:40;;;;;;;3.85;2.72;;;;;;;20.81;56.60;97107.16;5055528;28;20044;-77
2022/10/17 11:08:19;;;;;;;5.43;2.60;;;;;;;20.99;56.75;97107.50;5055628;28;20053;-77
2022/10/17 11:10:59;;;;;;;4.82;2.80;;;;;;;20.83;56.67;97106.81;5055929;28;20117;-76
2022/10/17 11:13:30;;;;;;;7.20;2.95;;;;;;;20.92;57.31;97110.13;5054003;28;20047;-76
2022/10/17 11:16:09;;;;;;;6.68;3.25;;;;;;;21.02;57.99;97103.97;5055062;28;20127;-75
2022/10/17 11:18:47;;;;;;;7.10;3.08;;;;;;;21.26;59.16;97104.81;5055198;28;20045;-76
2022/10/17 11:21:16;;;;;;;7.03;3.10;;;;;;;21.22;58.00;97103.94;5053981;28;20051;-78
2022/10/17 11:23:47;;;;;;;4.20;2.92;;;;;;;21.08;58.28;97107.25;5055340;28;20396;-77
2022/10/17 11:26:25;;;;;;;6.30;3.03;;;;;;;21.04;59.28;97106.41;5054237;28;20063;-77
2022/10/17 11:28:53;;;;;;;7.32;3.00;;;;;;;21.15;57.70;97106.59;5055023;28;20045;-75
2022/10/17 11:31:21;;;;;;;6.80;2.83;;;;;;;20.92;58.23;97101.81;5053417;28;20049;-75
2022/10/17 11:33:52;;;;;;;5.90;2.88;;;;;;;20.93;58.77;97097.88;5053374;28;20041;-78
2022/10/17 11:36:23;;;;;;;3.90;2.60;;;;;;;21.17;57.56;97101.47;5054339;28;20051;-76
2022/10/17 11:38:56;;;;;;;5.68;2.50;;;;;;;21.51;57.88;97100.53;5053981;28;20052;-77
2022/10/17 11:41:30;;;;;;;5.90;2.88;;;;;;;21.65;55.20;97099.13;5052766;28;20052;-78
2022/10/17 11:44:03;;;;;;;5.07;2.58;;;;;;;21.54;54.28;97104.50;5052589;28;20048;-75
2022/10/17 11:46:30;;;;;;;;;;;;;;;21.83;54.60;97101.00;5053474;28;20129;-77
2022/10/17 11:49:06;;;;;;;5.70;2.38;;;;;;;21.80;52.46;97109.25;5053095;28;19921;-76